Niigata Airport, Japan

2:21 PM JST on February 01, 2015 (GMT +0900)
Niigata | Change Station
CLOSE
Current Station
Airport
Location: Niigata Airport,
Elevation: 13 ft
Nearby Weather Stations

Elev 13 ft 37.96 °N, 139.11 °E | Updated 12 minutes ago

Snow Showers
Showers Snow Small Hail
32 °F
Feels Like 20 °F
N
18
Wind Variable Wind from West

Today
High -- | Low -- °F
--% Chance of Precip.
Yesterday
High -- | Low -- °F
Precip. -- in
6:48 AM 5:05 PM
Waxing Gibbous, 93% visible
Pressure 30.18 in
Visibility 0.5 miles
Clouds Few 400 ft
Scattered Clouds 800 ft
Mostly Cloudy 1000 ft
Windchill 20 °F
Dew Point 30 °F
Humidity 93%
Rainfall 0.00 in
Snow Depth Not available.
UV 1 out of 12
Pollen Not available.
Air Quality Not available.
Flu Activity Not available.
SPECI RJSN 010509Z 26016KT 0800 R28/P1800N SHSNGS FEW004 SCT008 BKN010 00/M01 Q1022 RMK 1ST004 3ST008 7CU010 A3020 SNOW PELLETS

More Conditions Fewer Conditions

Pressure 30.18 in
Visibility 0.5 miles
Clouds Few 400 ft
Scattered Clouds 800 ft
Mostly Cloudy 1000 ft
Windchill 20 °F
Dew Point 30 °F
Humidity 93%
Rainfall 0.00 in
Snow Depth Not available.
UV 1 out of 12
Pollen Not available.
Air Quality Not available.
Flu Activity Not available.
SPECI RJSN 010509Z 26016KT 0800 R28/P1800N SHSNGS FEW004 SCT008 BKN010 00/M01 Q1022 RMK 1ST004 3ST008 7CU010 A3020 SNOW PELLETS

More Conditions Fewer Conditions

10-Day Weather Forecast

Almanac

Astronomy

Feb. 01, 2015 Rise Set
Actual Time
Civil Twilight
Nautical Twilight
Astronomical Twilight
Moon
Length of Visible Light
Length of Day
Tomorrow will be .
, % of the Moon is Illuminated

Today's Extremes

Country Highs Country Lows

Community

WunderPhotos

Upload Photos

1,792,314 photos uploaded!

WunderBlogs® & News

Nearby

Air Quality

  Air Quality AQ Index Pollutant
Not available.

Snow Depth

Station Depth Elevation

Earthquake Activity

City Distance Mag. Time & Date
Minimum magnitude displayed is 2.5.

Coastal Water Temperatures

Place Temperature

Nearby Weather Stations